sensor_id;sensor_type;location;lat;lon;timestamp;temperature;humidity
1351;DHT22;669;50.206;9.998;2022-08-01T00:01:15;18.30;50.40
1351;DHT22;669;50.206;9.998;2022-08-01T00:03:43;18.30;50.70
1351;DHT22;669;50.206;9.998;2022-08-01T00:06:10;18.30;50.90
1351;DHT22;669;50.206;9.998;2022-08-01T00:08:38;18.30;50.70
1351;DHT22;669;50.206;9.998;2022-08-01T00:11:06;18.30;50.80
1351;DHT22;669;50.206;9.998;2022-08-01T00:13:35;18.20;51.50
1351;DHT22;669;50.206;9.998;2022-08-01T00:16:05;18.20;51.40
1351;DHT22;669;50.206;9.998;2022-08-01T00:18:33;18.20;51.30
1351;DHT22;669;50.206;9.998;2022-08-01T00:21:02;18.20;50.90
1351;DHT22;669;50.206;9.998;2022-08-01T00:23:30;18.10;50.90
1351;DHT22;669;50.206;9.998;2022-08-01T00:25:58;18.00;51.30
1351;DHT22;669;50.206;9.998;2022-08-01T00:28:26;18.00;52.40
1351;DHT22;669;50.206;9.998;2022-08-01T00:30:54;18.00;52.00
1351;DHT22;669;50.206;9.998;2022-08-01T00:33:23;18.10;51.60
1351;DHT22;669;50.206;9.998;2022-08-01T00:35:52;18.10;51.00
1351;DHT22;669;50.206;9.998;2022-08-01T00:38:19;18.10;50.90
1351;DHT22;669;50.206;9.998;2022-08-01T00:40:48;18.00;51.00
1351;DHT22;669;50.206;9.998;2022-08-01T00:43:16;18.00;51.20
1351;DHT22;669;50.206;9.998;2022-08-01T00:45:44;18.00;50.20
1351;DHT22;669;50.206;9.998;2022-08-01T00:48:12;17.80;50.90
1351;DHT22;669;50.206;9.998;2022-08-01T00:50:41;17.70;52.00
1351;DHT22;669;50.206;9.998;2022-08-01T00:53:09;17.60;51.70
1351;DHT22;669;50.206;9.998;2022-08-01T00:55:45;17.50;52.00
1351;DHT22;669;50.206;9.998;2022-08-01T00:58:14;17.40;52.10
1351;DHT22;669;50.206;9.998;2022-08-01T01:00:43;17.40;52.30
1351;DHT22;669;50.206;9.998;2022-08-01T01:03:21;17.30;52.60
1351;DHT22;669;50.206;9.998;2022-08-01T01:06:16;17.30;52.40
1351;DHT22;669;50.206;9.998;2022-08-01T01:08:58;17.20;52.60
1351;DHT22;669;50.206;9.998;2022-08-01T01:11:34;17.20;52.60
1351;DHT22;669;50.206;9.998;2022-08-01T01:14:07;17.10;52.90
1351;DHT22;669;50.206;9.998;2022-08-01T01:16:37;17.10;53.10
1351;DHT22;669;50.206;9.998;2022-08-01T01:19:10;17.00;53.50
1351;DHT22;669;50.206;9.998;2022-08-01T01:21:57;17.10;53.50
1351;DHT22;669;50.206;9.998;2022-08-01T01:24:36;17.00;53.40
1351;DHT22;669;50.206;9.998;2022-08-01T01:27:12;16.90;53.60
1351;DHT22;669;50.206;9.998;2022-08-01T01:29:50;16.90;53.50
1351;DHT22;669;50.206;9.998;2022-08-01T01:32:31;16.70;54.50
1351;DHT22;669;50.206;9.998;2022-08-01T01:35:03;16.70;54.10
1351;DHT22;669;50.206;9.998;2022-08-01T01:37:33;16.60;54.10
1351;DHT22;669;50.206;9.998;2022-08-01T01:40:04;16.60;55.30
1351;DHT22;669;50.206;9.998;2022-08-01T01:42:34;16.60;54.80
1351;DHT22;669;50.206;9.998;2022-08-01T01:45:06;16.50;56.00
1351;DHT22;669;50.206;9.998;2022-08-01T01:47:36;16.70;56.20
1351;DHT22;669;50.206;9.998;2022-08-01T01:50:08;16.80;55.70
1351;DHT22;669;50.206;9.998;2022-08-01T01:52:37;16.90;56.10
1351;DHT22;669;50.206;9.998;2022-08-01T01:55:08;17.00;55.60
1351;DHT22;669;50.206;9.998;2022-08-01T01:57:39;17.10;55.50
1351;DHT22;669;50.206;9.998;2022-08-01T02:00:11;17.10;55.30
1351;DHT22;669;50.206;9.998;2022-08-01T02:02:40;17.10;54.60
1351;DHT22;669;50.206;9.998;2022-08-01T02:05:11;17.10;54.80
1351;DHT22;669;50.206;9.998;2022-08-01T02:07:40;17.10;55.10
1351;DHT22;669;50.206;9.998;2022-08-01T02:10:10;16.80;54.30
1351;DHT22;669;50.206;9.998;2022-08-01T02:12:41;16.60;54.80
1351;DHT22;669;50.206;9.998;2022-08-01T02:15:13;16.50;54.80
1351;DHT22;669;50.206;9.998;2022-08-01T02:17:45;16.40;55.50
1351;DHT22;669;50.206;9.998;2022-08-01T02:20:15;16.40;56.00
1351;DHT22;669;50.206;9.998;2022-08-01T02:22:47;16.30;55.10
1351;DHT22;669;50.206;9.998;2022-08-01T02:25:21;16.30;56.60
1351;DHT22;669;50.206;9.998;2022-08-01T02:27:54;16.30;55.90
1351;DHT22;669;50.206;9.998;2022-08-01T02:30:31;16.20;55.80
1351;DHT22;669;50.206;9.998;2022-08-01T02:33:04;16.10;55.70
1351;DHT22;669;50.206;9.998;2022-08-01T02:35:42;16.10;57.30
1351;DHT22;669;50.206;9.998;2022-08-01T02:38:33;16.10;56.10
1351;DHT22;669;50.206;9.998;2022-08-01T02:41:06;15.90;56.30
1351;DHT22;669;50.206;9.998;2022-08-01T02:43:38;15.80;56.70
1351;DHT22;669;50.206;9.998;2022-08-01T02:46:09;15.90;57.90
1351;DHT22;669;50.206;9.998;2022-08-01T02:48:41;16.00;57.40
1351;DHT22;669;50.206;9.998;2022-08-01T02:51:10;16.00;56.70
1351;DHT22;669;50.206;9.998;2022-08-01T02:53:40;15.90;56.00
1351;DHT22;669;50.206;9.998;2022-08-01T02:56:11;15.70;55.60
1351;DHT22;669;50.206;9.998;2022-08-01T02:58:40;15.70;59.10
1351;DHT22;669;50.206;9.998;2022-08-01T03:01:13;15.90;59.70
1351;DHT22;669;50.206;9.998;2022-08-01T03:03:45;16.10;59.60
1351;DHT22;669;50.206;9.998;2022-08-01T03:06:14;16.20;59.40
1351;DHT22;669;50.206;9.998;2022-08-01T03:08:44;16.10;56.90
1351;DHT22;669;50.206;9.998;2022-08-01T03:11:12;16.00;58.50
1351;DHT22;669;50.206;9.998;2022-08-01T03:13:42;15.90;58.80
1351;DHT22;669;50.206;9.998;2022-08-01T03:16:12;16.00;60.10
1351;DHT22;669;50.206;9.998;2022-08-01T03:18:42;16.10;60.60
1351;DHT22;669;50.206;9.998;2022-08-01T03:21:12;16.00;59.90
1351;DHT22;669;50.206;9.998;2022-08-01T03:23:42;16.00;59.10
1351;DHT22;669;50.206;9.998;2022-08-01T03:26:10;16.00;58.90
1351;DHT22;669;50.206;9.998;2022-08-01T03:28:39;16.00;59.90
1351;DHT22;669;50.206;9.998;2022-08-01T03:31:08;16.10;60.60
1351;DHT22;669;50.206;9.998;2022-08-01T03:33:38;16.20;60.30
1351;DHT22;669;50.206;9.998;2022-08-01T03:36:09;16.30;60.40
1351;DHT22;669;50.206;9.998;2022-08-01T03:38:39;16.40;59.30
1351;DHT22;669;50.206;9.998;2022-08-01T03:41:11;16.30;58.00
1351;DHT22;669;50.206;9.998;2022-08-01T03:43:44;16.20;57.10
1351;DHT22;669;50.206;9.998;2022-08-01T03:46:17;16.00;57.60
1351;DHT22;669;50.206;9.998;2022-08-01T03:48:49;15.90;58.50
1351;DHT22;669;50.206;9.998;2022-08-01T03:51:19;15.90;59.40
1351;DHT22;669;50.206;9.998;2022-08-01T03:53:50;16.00;60.50
1351;DHT22;669;50.206;9.998;2022-08-01T03:56:19;16.10;60.20
1351;DHT22;669;50.206;9.998;2022-08-01T03:58:49;16.30;60.40
1351;DHT22;669;50.206;9.998;2022-08-01T04:01:18;16.50;60.60
1351;DHT22;669;50.206;9.998;2022-08-01T04:03:48;16.40;58.70
1351;DHT22;669;50.206;9.998;2022-08-01T04:06:17;16.30;59.30
1351;DHT22;669;50.206;9.998;2022-08-01T04:08:45;16.40;59.20
1351;DHT22;669;50.206;9.998;2022-08-01T04:11:24;16.40;58.90
1351;DHT22;669;50.206;9.998;2022-08-01T04:13:52;16.40;59.40
1351;DHT22;669;50.206;9.998;2022-08-01T04:16:21;16.40;59.80
1351;DHT22;669;50.206;9.998;2022-08-01T04:18:50;16.40;61.30
1351;DHT22;669;50.206;9.998;2022-08-01T04:21:23;16.50;60.10
1351;DHT22;669;50.206;9.998;2022-08-01T04:23:54;16.60;60.10
1351;DHT22;669;50.206;9.998;2022-08-01T04:26:24;16.70;60.80
1351;DHT22;669;50.206;9.998;2022-08-01T04:28:54;16.80;60.50
1351;DHT22;669;50.206;9.998;2022-08-01T04:31:24;16.90;59.60
1351;DHT22;669;50.206;9.998;2022-08-01T04:33:55;17.00;61.20
1351;DHT22;669;50.206;9.998;2022-08-01T04:36:25;17.20;60.20
1351;DHT22;669;50.206;9.998;2022-08-01T04:38:57;17.30;59.30
1351;DHT22;669;50.206;9.998;2022-08-01T04:41:27;17.50;58.80
1351;DHT22;669;50.206;9.998;2022-08-01T04:43:57;17.70;57.10
1351;DHT22;669;50.206;9.998;2022-08-01T04:46:27;17.90;57.30
1351;DHT22;669;50.206;9.998;2022-08-01T04:48:58;18.00;57.30
1351;DHT22;669;50.206;9.998;2022-08-01T04:51:27;18.40;56.90
1351;DHT22;669;50.206;9.998;2022-08-01T04:53:55;18.80;55.80
1351;DHT22;669;50.206;9.998;2022-08-01T04:56:24;19.20;54.20
1351;DHT22;669;50.206;9.998;2022-08-01T04:58:52;19.50;53.70
1351;DHT22;669;50.206;9.998;2022-08-01T05:01:53;19.90;52.70
1351;DHT22;669;50.206;9.998;2022-08-01T05:04:23;20.10;52.10
1351;DHT22;669;50.206;9.998;2022-08-01T05:06:50;20.40;51.70
1351;DHT22;669;50.206;9.998;2022-08-01T05:09:19;20.70;51.10
1351;DHT22;669;50.206;9.998;2022-08-01T05:11:47;20.80;50.50
1351;DHT22;669;50.206;9.998;2022-08-01T05:14:15;20.80;50.50
1351;DHT22;669;50.206;9.998;2022-08-01T05:16:44;20.70;50.40
1351;DHT22;669;50.206;9.998;2022-08-01T05:19:12;20.50;51.30
1351;DHT22;669;50.206;9.998;2022-08-01T05:21:41;20.60;50.90
1351;DHT22;669;50.206;9.998;2022-08-01T05:24:09;20.70;51.30
1351;DHT22;669;50.206;9.998;2022-08-01T05:26:37;21.00;50.70
1351;DHT22;669;50.206;9.998;2022-08-01T05:29:05;21.30;50.60
1351;DHT22;669;50.206;9.998;2022-08-01T05:31:33;21.60;50.60
1351;DHT22;669;50.206;9.998;2022-08-01T05:34:02;21.80;50.20
1351;DHT22;669;50.206;9.998;2022-08-01T05:36:30;22.10;49.50
1351;DHT22;669;50.206;9.998;2022-08-01T05:38:59;22.50;49.00
1351;DHT22;669;50.206;9.998;2022-08-01T05:41:27;22.60;48.70
1351;DHT22;669;50.206;9.998;2022-08-01T05:43:55;22.40;48.90
1351;DHT22;669;50.206;9.998;2022-08-01T05:46:23;22.50;48.80
1351;DHT22;669;50.206;9.998;2022-08-01T05:48:53;22.40;48.50
1351;DHT22;669;50.206;9.998;2022-08-01T05:51:21;22.00;50.10
1351;DHT22;669;50.206;9.998;2022-08-01T05:53:49;21.80;50.20
1351;DHT22;669;50.206;9.998;2022-08-01T05:56:18;21.70;51.20
1351;DHT22;669;50.206;9.998;2022-08-01T05:58:47;21.60;51.20
1351;DHT22;669;50.206;9.998;2022-08-01T06:01:16;21.40;51.70
1351;DHT22;669;50.206;9.998;2022-08-01T06:03:45;21.40;52.60
1351;DHT22;669;50.206;9.998;2022-08-01T06:06:13;21.30;53.20
1351;DHT22;669;50.206;9.998;2022-08-01T06:08:41;21.30;53.10
1351;DHT22;669;50.206;9.998;2022-08-01T06:11:09;21.20;53.40
1351;DHT22;669;50.206;9.998;2022-08-01T06:13:40;21.20;54.40
1351;DHT22;669;50.206;9.998;2022-08-01T06:16:14;21.30;53.50
1351;DHT22;669;50.206;9.998;2022-08-01T06:18:42;21.30;53.80
1351;DHT22;669;50.206;9.998;2022-08-01T06:21:10;21.30;53.20
1351;DHT22;669;50.206;9.998;2022-08-01T06:23:38;21.50;52.80
1351;DHT22;669;50.206;9.998;2022-08-01T06:26:08;21.50;53.50
1351;DHT22;669;50.206;9.998;2022-08-01T06:28:36;21.50;53.10
1351;DHT22;669;50.206;9.998;2022-08-01T06:31:06;21.50;52.60
1351;DHT22;669;50.206;9.998;2022-08-01T06:33:34;21.50;52.90
1351;DHT22;669;50.206;9.998;2022-08-01T06:36:02;21.50;53.30
1351;DHT22;669;50.206;9.998;2022-08-01T06:38:30;21.50;53.30
1351;DHT22;669;50.206;9.998;2022-08-01T06:40:58;21.50;53.30
1351;DHT22;669;50.206;9.998;2022-08-01T06:43:26;21.60;53.10
1351;DHT22;669;50.206;9.998;2022-08-01T06:45:54;21.60;52.70
1351;DHT22;669;50.206;9.998;2022-08-01T06:48:24;21.60;52.80
1351;DHT22;669;50.206;9.998;2022-08-01T06:50:52;21.60;52.70
1351;DHT22;669;50.206;9.998;2022-08-01T06:53:35;21.60;52.90
1351;DHT22;669;50.206;9.998;2022-08-01T06:56:04;21.60;53.30
1351;DHT22;669;50.206;9.998;2022-08-01T06:58:32;21.60;53.20
1351;DHT22;669;50.206;9.998;2022-08-01T07:01:01;21.50;53.30
1351;DHT22;669;50.206;9.998;2022-08-01T07:03:34;21.50;53.50
1351;DHT22;669;50.206;9.998;2022-08-01T07:06:19;21.60;53.40
1351;DHT22;669;50.206;9.998;2022-08-01T07:08:47;21.80;53.10
1351;DHT22;669;50.206;9.998;2022-08-01T07:11:15;21.80;52.80
1351;DHT22;669;50.206;9.998;2022-08-01T07:13:43;21.90;52.60
1351;DHT22;669;50.206;9.998;2022-08-01T07:16:12;21.90;52.60
1351;DHT22;669;50.206;9.998;2022-08-01T07:18:41;21.90;52.50
1351;DHT22;669;50.206;9.998;2022-08-01T07:21:09;22.00;53.10
1351;DHT22;669;50.206;9.998;2022-08-01T07:23:57;22.10;51.70
1351;DHT22;669;50.206;9.998;2022-08-01T07:26:26;22.30;51.00
1351;DHT22;669;50.206;9.998;2022-08-01T07:28:54;22.30;50.70
1351;DHT22;669;50.206;9.998;2022-08-01T07:31:22;22.30;51.00
1351;DHT22;669;50.206;9.998;2022-08-01T07:33:56;22.30;50.90
1351;DHT22;669;50.206;9.998;2022-08-01T07:36:24;22.30;50.90
1351;DHT22;669;50.206;9.998;2022-08-01T07:38:52;22.30;50.80
1351;DHT22;669;50.206;9.998;2022-08-01T07:41:20;22.30;50.70
1351;DHT22;669;50.206;9.998;2022-08-01T07:44:08;22.30;50.80
1351;DHT22;669;50.206;9.998;2022-08-01T07:46:36;22.20;51.70
1351;DHT22;669;50.206;9.998;2022-08-01T07:49:05;22.20;51.30
1351;DHT22;669;50.206;9.998;2022-08-01T07:51:33;22.20;51.30
1351;DHT22;669;50.206;9.998;2022-08-01T07:54:02;22.30;50.60
1351;DHT22;669;50.206;9.998;2022-08-01T07:56:30;22.30;50.90
1351;DHT22;669;50.206;9.998;2022-08-01T07:58:57;22.30;50.70
1351;DHT22;669;50.206;9.998;2022-08-01T08:01:25;22.30;50.90
1351;DHT22;669;50.206;9.998;2022-08-01T08:03:54;22.30;51.30
1351;DHT22;669;50.206;9.998;2022-08-01T08:06:23;22.30;51.80
1351;DHT22;669;50.206;9.998;2022-08-01T08:08:51;22.40;51.00
1351;DHT22;669;50.206;9.998;2022-08-01T08:11:20;22.50;51.20
1351;DHT22;669;50.206;9.998;2022-08-01T08:13:48;22.60;50.90
1351;DHT22;669;50.206;9.998;2022-08-01T08:16:15;22.80;50.60
1351;DHT22;669;50.206;9.998;2022-08-01T08:18:44;23.20;49.80
1351;DHT22;669;50.206;9.998;2022-08-01T08:21:12;23.40;48.70
1351;DHT22;669;50.206;9.998;2022-08-01T08:23:41;23.70;48.30
1351;DHT22;669;50.206;9.998;2022-08-01T08:26:32;23.70;48.50
1351;DHT22;669;50.206;9.998;2022-08-01T08:29:00;23.60;48.40
1351;DHT22;669;50.206;9.998;2022-08-01T08:31:28;23.60;49.10
1351;DHT22;669;50.206;9.998;2022-08-01T08:34:15;23.90;49.00
1351;DHT22;669;50.206;9.998;2022-08-01T08:36:44;24.60;47.40
1351;DHT22;669;50.206;9.998;2022-08-01T08:39:15;25.40;46.60
1351;DHT22;669;50.206;9.998;2022-08-01T08:41:46;26.40;43.60
1351;DHT22;669;50.206;9.998;2022-08-01T08:44:16;27.00;42.40
1351;DHT22;669;50.206;9.998;2022-08-01T08:46:45;27.20;42.10
1351;DHT22;669;50.206;9.998;2022-08-01T08:49:17;27.40;41.90
1351;DHT22;669;50.206;9.998;2022-08-01T08:51:47;27.90;40.00
1351;DHT22;669;50.206;9.998;2022-08-01T08:54:19;28.10;37.70
1351;DHT22;669;50.206;9.998;2022-08-01T08:56:58;28.20;37.90
1351;DHT22;669;50.206;9.998;2022-08-01T08:59:26;28.00;36.70
1351;DHT22;669;50.206;9.998;2022-08-01T09:01:55;28.00;36.90
1351;DHT22;669;50.206;9.998;2022-08-01T09:04:24;27.80;37.60
1351;DHT22;669;50.206;9.998;2022-08-01T09:06:52;27.30;38.60
1351;DHT22;669;50.206;9.998;2022-08-01T09:09:23;27.20;39.20
1351;DHT22;669;50.206;9.998;2022-08-01T09:11:51;27.40;40.20
1351;DHT22;669;50.206;9.998;2022-08-01T09:14:24;27.20;38.40
1351;DHT22;669;50.206;9.998;2022-08-01T09:17:02;26.60;39.50
1351;DHT22;669;50.206;9.998;2022-08-01T09:19:37;26.40;40.00
1351;DHT22;669;50.206;9.998;2022-08-01T09:22:09;26.50;40.60
1351;DHT22;669;50.206;9.998;2022-08-01T09:24:39;27.10;39.30
1351;DHT22;669;50.206;9.998;2022-08-01T09:27:18;27.80;39.00
1351;DHT22;669;50.206;9.998;2022-08-01T09:29:48;28.50;37.00
1351;DHT22;669;50.206;9.998;2022-08-01T09:32:28;29.50;33.80
1351;DHT22;669;50.206;9.998;2022-08-01T09:35:22;30.00;32.90
1351;DHT22;669;50.206;9.998;2022-08-01T09:38:14;30.30;32.60
1351;DHT22;669;50.206;9.998;2022-08-01T09:40:49;30.30;31.40
1351;DHT22;669;50.206;9.998;2022-08-01T09:43:18;29.90;31.50
1351;DHT22;669;50.206;9.998;2022-08-01T09:45:47;29.40;32.60
1351;DHT22;669;50.206;9.998;2022-08-01T09:48:16;29.10;33.40
1351;DHT22;669;50.206;9.998;2022-08-01T09:50:46;28.80;32.30
1351;DHT22;669;50.206;9.998;2022-08-01T09:53:15;28.80;33.30
1351;DHT22;669;50.206;9.998;2022-08-01T09:56:08;29.00;34.60
1351;DHT22;669;50.206;9.998;2022-08-01T09:58:49;28.50;33.20
1351;DHT22;669;50.206;9.998;2022-08-01T10:01:25;28.20;34.30
1351;DHT22;669;50.206;9.998;2022-08-01T10:04:05;28.00;34.90
1351;DHT22;669;50.206;9.998;2022-08-01T10:06:36;27.90;35.10
1351;DHT22;669;50.206;9.998;2022-08-01T10:09:04;27.70;35.20
1351;DHT22;669;50.206;9.998;2022-08-01T10:11:34;27.70;36.40
1351;DHT22;669;50.206;9.998;2022-08-01T10:14:07;27.20;36.20
1351;DHT22;669;50.206;9.998;2022-08-01T10:16:36;27.20;36.20
1351;DHT22;669;50.206;9.998;2022-08-01T10:19:06;26.70;35.00
1351;DHT22;669;50.206;9.998;2022-08-01T10:21:41;26.50;35.70
1351;DHT22;669;50.206;9.998;2022-08-01T10:24:26;26.20;35.70
1351;DHT22;669;50.206;9.998;2022-08-01T10:26:58;25.70;36.30
1351;DHT22;669;50.206;9.998;2022-08-01T10:29:37;25.50;37.70
1351;DHT22;669;50.206;9.998;2022-08-01T10:32:13;25.60;37.20
1351;DHT22;669;50.206;9.998;2022-08-01T10:34:42;25.70;36.30
1351;DHT22;669;50.206;9.998;2022-08-01T10:37:12;25.80;35.30
1351;DHT22;669;50.206;9.998;2022-08-01T10:39:41;26.00;35.40
1351;DHT22;669;50.206;9.998;2022-08-01T10:42:12;26.30;35.40
1351;DHT22;669;50.206;9.998;2022-08-01T10:44:41;26.80;34.70
1351;DHT22;669;50.206;9.998;2022-08-01T10:47:17;27.40;34.00
1351;DHT22;669;50.206;9.998;2022-08-01T10:49:58;27.90;32.60
1351;DHT22;669;50.206;9.998;2022-08-01T10:52:30;28.20;32.00
1351;DHT22;669;50.206;9.998;2022-08-01T10:55:06;28.40;31.30
1351;DHT22;669;50.206;9.998;2022-08-01T10:57:44;28.30;31.50
1351;DHT22;669;50.206;9.998;2022-08-01T11:00:19;28.10;32.00
1351;DHT22;669;50.206;9.998;2022-08-01T11:02:58;27.80;32.00
1351;DHT22;669;50.206;9.998;2022-08-01T11:05:30;27.40;33.20
1351;DHT22;669;50.206;9.998;2022-08-01T11:08:01;27.00;34.00
1351;DHT22;669;50.206;9.998;2022-08-01T11:10:36;26.80;33.60
1351;DHT22;669;50.206;9.998;2022-08-01T11:13:07;27.20;32.80
1351;DHT22;669;50.206;9.998;2022-08-01T11:15:35;28.00;30.90
1351;DHT22;669;50.206;9.998;2022-08-01T11:18:29;28.10;30.10
1351;DHT22;669;50.206;9.998;2022-08-01T11:20:59;28.10;30.10
1351;DHT22;669;50.206;9.998;2022-08-01T11:23:49;27.80;31.40
1351;DHT22;669;50.206;9.998;2022-08-01T11:26:18;27.80;30.90
1351;DHT22;669;50.206;9.998;2022-08-01T11:29:20;28.10;29.90
1351;DHT22;669;50.206;9.998;2022-08-01T11:31:49;28.90;29.50
1351;DHT22;669;50.206;9.998;2022-08-01T11:34:19;29.50;29.40
1351;DHT22;669;50.206;9.998;2022-08-01T11:36:47;30.40;27.70
1351;DHT22;669;50.206;9.998;2022-08-01T11:39:25;31.20;27.50
1351;DHT22;669;50.206;9.998;2022-08-01T11:41:52;31.80;25.80
1351;DHT22;669;50.206;9.998;2022-08-01T11:44:24;32.00;25.90
1351;DHT22;669;50.206;9.998;2022-08-01T11:46:59;32.10;25.60
1351;DHT22;669;50.206;9.998;2022-08-01T11:49:54;32.20;25.80
1351;DHT22;669;50.206;9.998;2022-08-01T11:52:27;31.40;25.20
1351;DHT22;669;50.206;9.998;2022-08-01T11:54:57;31.40;25.30
1351;DHT22;669;50.206;9.998;2022-08-01T11:57:26;31.60;27.20
1351;DHT22;669;50.206;9.998;2022-08-01T12:00:06;32.30;27.10
1351;DHT22;669;50.206;9.998;2022-08-01T12:02:43;32.40;25.20
1351;DHT22;669;50.206;9.998;2022-08-01T12:05:13;32.70;25.00
1351;DHT22;669;50.206;9.998;2022-08-01T12:07:44;32.90;24.40
1351;DHT22;669;50.206;9.998;2022-08-01T12:10:15;32.90;25.20
1351;DHT22;669;50.206;9.998;2022-08-01T12:12:45;32.70;23.40
1351;DHT22;669;50.206;9.998;2022-08-01T12:15:16;32.60;23.60
1351;DHT22;669;50.206;9.998;2022-08-01T12:17:46;32.70;23.80
1351;DHT22;669;50.206;9.998;2022-08-01T12:20:26;32.90;22.60
1351;DHT22;669;50.206;9.998;2022-08-01T12:22:57;32.60;23.30
1351;DHT22;669;50.206;9.998;2022-08-01T12:25:25;32.50;23.30
1351;DHT22;669;50.206;9.998;2022-08-01T12:27:53;32.10;23.00
1351;DHT22;669;50.206;9.998;2022-08-01T12:30:24;32.00;23.40
1351;DHT22;669;50.206;9.998;2022-08-01T12:32:54;32.40;23.50
1351;DHT22;669;50.206;9.998;2022-08-01T12:35:24;32.00;23.30
1351;DHT22;669;50.206;9.998;2022-08-01T12:37:54;31.70;23.60
1351;DHT22;669;50.206;9.998;2022-08-01T12:40:23;31.10;24.40
1351;DHT22;669;50.206;9.998;2022-08-01T12:42:53;30.40;25.10
1351;DHT22;669;50.206;9.998;2022-08-01T12:45:23;29.80;26.60
1351;DHT22;669;50.206;9.998;2022-08-01T12:47:52;29.70;28.30
1351;DHT22;669;50.206;9.998;2022-08-01T12:50:22;30.20;27.90
1351;DHT22;669;50.206;9.998;2022-08-01T12:52:51;30.40;26.50
1351;DHT22;669;50.206;9.998;2022-08-01T12:55:20;30.20;26.30
1351;DHT22;669;50.206;9.998;2022-08-01T12:58:04;29.80;26.80
1351;DHT22;669;50.206;9.998;2022-08-01T13:00:34;29.40;28.10
1351;DHT22;669;50.206;9.998;2022-08-01T13:03:04;29.20;28.00
1351;DHT22;669;50.206;9.998;2022-08-01T13:05:43;29.10;28.00
1351;DHT22;669;50.206;9.998;2022-08-01T13:08:12;29.00;27.60
1351;DHT22;669;50.206;9.998;2022-08-01T13:10:41;28.70;27.80
1351;DHT22;669;50.206;9.998;2022-08-01T13:13:10;28.50;27.60
1351;DHT22;669;50.206;9.998;2022-08-01T13:16:05;28.10;27.40
1351;DHT22;669;50.206;9.998;2022-08-01T13:18:48;27.90;27.70
1351;DHT22;669;50.206;9.998;2022-08-01T13:21:18;27.80;28.20
1351;DHT22;669;50.206;9.998;2022-08-01T13:24:02;27.70;27.90
1351;DHT22;669;50.206;9.998;2022-08-01T13:26:40;27.70;28.30
1351;DHT22;669;50.206;9.998;2022-08-01T13:29:11;27.60;28.40
1351;DHT22;669;50.206;9.998;2022-08-01T13:31:42;27.60;28.60
1351;DHT22;669;50.206;9.998;2022-08-01T13:34:10;27.60;28.60
1351;DHT22;669;50.206;9.998;2022-08-01T13:36:39;28.30;29.10
1351;DHT22;669;50.206;9.998;2022-08-01T13:39:15;29.20;28.00
1351;DHT22;669;50.206;9.998;2022-08-01T13:42:01;29.80;27.00
1351;DHT22;669;50.206;9.998;2022-08-01T13:44:29;30.10;25.70
1351;DHT22;669;50.206;9.998;2022-08-01T13:46:58;30.20;25.30
1351;DHT22;669;50.206;9.998;2022-08-01T13:49:26;30.00;26.40
1351;DHT22;669;50.206;9.998;2022-08-01T13:52:06;29.70;26.60
1351;DHT22;669;50.206;9.998;2022-08-01T13:54:34;29.50;26.60
1351;DHT22;669;50.206;9.998;2022-08-01T13:57:03;29.40;26.80
1351;DHT22;669;50.206;9.998;2022-08-01T13:59:31;29.40;26.10
1351;DHT22;669;50.206;9.998;2022-08-01T14:02:01;29.90;25.10
1351;DHT22;669;50.206;9.998;2022-08-01T14:04:29;30.00;24.90
1351;DHT22;669;50.206;9.998;2022-08-01T14:06:57;30.00;25.10
1351;DHT22;669;50.206;9.998;2022-08-01T14:09:32;29.80;26.30
1351;DHT22;669;50.206;9.998;2022-08-01T14:12:10;29.70;26.90
1351;DHT22;669;50.206;9.998;2022-08-01T14:14:38;29.80;25.70
1351;DHT22;669;50.206;9.998;2022-08-01T14:17:10;30.00;26.00
1351;DHT22;669;50.206;9.998;2022-08-01T14:19:38;29.80;26.10
1351;DHT22;669;50.206;9.998;2022-08-01T14:22:11;29.70;26.20
1351;DHT22;669;50.206;9.998;2022-08-01T14:24:39;29.50;26.80
1351;DHT22;669;50.206;9.998;2022-08-01T14:27:08;29.40;26.20
1351;DHT22;669;50.206;9.998;2022-08-01T14:29:36;29.20;26.20
1351;DHT22;669;50.206;9.998;2022-08-01T14:32:25;29.20;25.00
1351;DHT22;669;50.206;9.998;2022-08-01T14:34:54;29.20;25.40
1351;DHT22;669;50.206;9.998;2022-08-01T14:37:23;29.10;25.20
1351;DHT22;669;50.206;9.998;2022-08-01T14:39:55;29.00;25.50
1351;DHT22;669;50.206;9.998;2022-08-01T14:42:24;28.70;26.20
1351;DHT22;669;50.206;9.998;2022-08-01T14:44:52;28.60;26.70
1351;DHT22;669;50.206;9.998;2022-08-01T14:47:20;28.50;27.20
1351;DHT22;669;50.206;9.998;2022-08-01T14:49:50;28.50;26.60
1351;DHT22;669;50.206;9.998;2022-08-01T14:52:18;28.50;26.20
1351;DHT22;669;50.206;9.998;2022-08-01T14:54:47;28.50;26.00
1351;DHT22;669;50.206;9.998;2022-08-01T14:57:15;28.50;25.80
1351;DHT22;669;50.206;9.998;2022-08-01T14:59:44;28.50;26.00
1351;DHT22;669;50.206;9.998;2022-08-01T15:02:12;28.50;26.30
1351;DHT22;669;50.206;9.998;2022-08-01T15:04:43;28.40;26.60
1351;DHT22;669;50.206;9.998;2022-08-01T15:07:13;28.40;26.70
1351;DHT22;669;50.206;9.998;2022-08-01T15:09:42;28.40;26.70
1351;DHT22;669;50.206;9.998;2022-08-01T15:12:10;28.50;26.50
1351;DHT22;669;50.206;9.998;2022-08-01T15:14:39;28.50;26.80
1351;DHT22;669;50.206;9.998;2022-08-01T15:17:16;28.40;26.70
1351;DHT22;669;50.206;9.998;2022-08-01T15:19:45;28.40;27.60
1351;DHT22;669;50.206;9.998;2022-08-01T15:22:16;28.50;26.70
1351;DHT22;669;50.206;9.998;2022-08-01T15:24:44;28.40;27.20
1351;DHT22;669;50.206;9.998;2022-08-01T15:27:12;28.30;27.50
1351;DHT22;669;50.206;9.998;2022-08-01T15:29:40;28.20;27.50
1351;DHT22;669;50.206;9.998;2022-08-01T15:32:08;28.10;28.10
1351;DHT22;669;50.206;9.998;2022-08-01T15:34:38;28.00;28.60
1351;DHT22;669;50.206;9.998;2022-08-01T15:37:08;27.90;28.20
1351;DHT22;669;50.206;9.998;2022-08-01T15:39:38;27.90;28.20
1351;DHT22;669;50.206;9.998;2022-08-01T15:42:09;27.90;28.40
1351;DHT22;669;50.206;9.998;2022-08-01T15:44:38;28.00;28.50
1351;DHT22;669;50.206;9.998;2022-08-01T15:47:06;28.00;29.30
1351;DHT22;669;50.206;9.998;2022-08-01T15:49:35;28.10;29.70
1351;DHT22;669;50.206;9.998;2022-08-01T15:52:04;28.10;29.20
1351;DHT22;669;50.206;9.998;2022-08-01T15:54:48;28.10;28.70
1351;DHT22;669;50.206;9.998;2022-08-01T15:57:16;28.10;28.60
1351;DHT22;669;50.206;9.998;2022-08-01T15:59:44;28.10;28.20
1351;DHT22;669;50.206;9.998;2022-08-01T16:02:12;28.20;29.60
1351;DHT22;669;50.206;9.998;2022-08-01T16:04:41;28.20;29.50
1351;DHT22;669;50.206;9.998;2022-08-01T16:07:09;28.10;29.40
1351;DHT22;669;50.206;9.998;2022-08-01T16:09:37;28.00;29.00
1351;DHT22;669;50.206;9.998;2022-08-01T16:12:07;27.80;28.20
1351;DHT22;669;50.206;9.998;2022-08-01T16:14:36;27.70;27.60
1351;DHT22;669;50.206;9.998;2022-08-01T16:17:04;27.60;27.20
1351;DHT22;669;50.206;9.998;2022-08-01T16:19:32;27.50;27.50
1351;DHT22;669;50.206;9.998;2022-08-01T16:22:00;27.40;28.20
1351;DHT22;669;50.206;9.998;2022-08-01T16:24:28;27.40;27.20
1351;DHT22;669;50.206;9.998;2022-08-01T16:26:56;27.30;27.60
1351;DHT22;669;50.206;9.998;2022-08-01T16:29:26;27.20;27.50
1351;DHT22;669;50.206;9.998;2022-08-01T16:31:56;27.20;27.30
1351;DHT22;669;50.206;9.998;2022-08-01T16:34:41;27.10;27.50
1351;DHT22;669;50.206;9.998;2022-08-01T16:37:13;27.10;27.40
1351;DHT22;669;50.206;9.998;2022-08-01T16:39:41;27.00;27.50
1351;DHT22;669;50.206;9.998;2022-08-01T16:42:13;27.00;27.80
1351;DHT22;669;50.206;9.998;2022-08-01T16:44:42;26.90;27.60